sensor_id;sensor_type;location;lat;lon;timestamp;P1;durP1;ratioP1;P2;durP2;ratioP2
1721;SDS011;858;53.190;8.596;2022-11-15T00:00:48;37.20;;;26.90;;
1721;SDS011;858;53.190;8.596;2022-11-15T00:03:15;38.40;;;27.23;;
1721;SDS011;858;53.190;8.596;2022-11-15T00:05:41;38.73;;;27.50;;
1721;SDS011;858;53.190;8.596;2022-11-15T00:08:09;37.00;;;26.00;;
1721;SDS011;858;53.190;8.596;2022-11-15T00:10:35;38.20;;;27.17;;
1721;SDS011;858;53.190;8.596;2022-11-15T00:13:04;39.00;;;26.23;;
1721;SDS011;858;53.190;8.596;2022-11-15T00:15:31;40.20;;;27.38;;
1721;SDS011;858;53.190;8.596;2022-11-15T00:18:01;34.85;;;25.45;;
1721;SDS011;858;53.190;8.596;2022-11-15T00:20:29;38.75;;;26.13;;
1721;SDS011;858;53.190;8.596;2022-11-15T00:22:55;38.78;;;26.75;;
1721;SDS011;858;53.190;8.596;2022-11-15T00:25:21;37.53;;;26.65;;
1721;SDS011;858;53.190;8.596;2022-11-15T00:27:48;40.05;;;26.88;;
1721;SDS011;858;53.190;8.596;2022-11-15T00:30:14;37.20;;;25.63;;
1721;SDS011;858;53.190;8.596;2022-11-15T00:32:41;41.95;;;27.33;;
1721;SDS011;858;53.190;8.596;2022-11-15T00:35:09;37.45;;;26.15;;
1721;SDS011;858;53.190;8.596;2022-11-15T00:37:35;37.20;;;27.02;;
1721;SDS011;858;53.190;8.596;2022-11-15T00:40:02;38.00;;;26.90;;
1721;SDS011;858;53.190;8.596;2022-11-15T00:42:29;36.75;;;26.50;;
1721;SDS011;858;53.190;8.596;2022-11-15T00:44:55;37.90;;;26.20;;
1721;SDS011;858;53.190;8.596;2022-11-15T00:47:22;36.05;;;26.13;;
1721;SDS011;858;53.190;8.596;2022-11-15T00:49:48;34.80;;;25.45;;
1721;SDS011;858;53.190;8.596;2022-11-15T00:52:17;35.67;;;26.35;;
1721;SDS011;858;53.190;8.596;2022-11-15T00:54:44;35.42;;;24.60;;
1721;SDS011;858;53.190;8.596;2022-11-15T00:57:11;36.42;;;24.60;;
1721;SDS011;858;53.190;8.596;2022-11-15T00:59:38;36.95;;;24.95;;
1721;SDS011;858;53.190;8.596;2022-11-15T01:02:06;34.60;;;24.27;;
1721;SDS011;858;53.190;8.596;2022-11-15T01:04:33;34.75;;;23.90;;
1721;SDS011;858;53.190;8.596;2022-11-15T01:07:00;33.10;;;23.05;;
1721;SDS011;858;53.190;8.596;2022-11-15T01:09:27;32.08;;;23.40;;
1721;SDS011;858;53.190;8.596;2022-11-15T01:11:55;35.33;;;23.48;;
1721;SDS011;858;53.190;8.596;2022-11-15T01:14:23;33.13;;;23.90;;
1721;SDS011;858;53.190;8.596;2022-11-15T01:16:49;33.50;;;23.30;;
1721;SDS011;858;53.190;8.596;2022-11-15T01:19:17;34.97;;;22.90;;
1721;SDS011;858;53.190;8.596;2022-11-15T01:21:44;34.70;;;24.35;;
1721;SDS011;858;53.190;8.596;2022-11-15T01:24:11;31.58;;;22.60;;
1721;SDS011;858;53.190;8.596;2022-11-15T01:26:39;31.65;;;23.33;;
1721;SDS011;858;53.190;8.596;2022-11-15T01:29:06;32.97;;;23.33;;
1721;SDS011;858;53.190;8.596;2022-11-15T01:31:32;31.08;;;22.10;;
1721;SDS011;858;53.190;8.596;2022-11-15T01:33:59;29.88;;;23.42;;
1721;SDS011;858;53.190;8.596;2022-11-15T01:36:27;32.10;;;22.40;;
1721;SDS011;858;53.190;8.596;2022-11-15T01:38:57;30.90;;;22.67;;
1721;SDS011;858;53.190;8.596;2022-11-15T01:41:25;30.02;;;21.45;;
1721;SDS011;858;53.190;8.596;2022-11-15T01:43:54;30.40;;;22.20;;
1721;SDS011;858;53.190;8.596;2022-11-15T01:46:30;34.65;;;23.55;;
1721;SDS011;858;53.190;8.596;2022-11-15T01:48:59;30.30;;;22.40;;
1721;SDS011;858;53.190;8.596;2022-11-15T01:51:26;33.97;;;23.02;;
1721;SDS011;858;53.190;8.596;2022-11-15T01:53:54;35.28;;;23.30;;
1721;SDS011;858;53.190;8.596;2022-11-15T01:56:22;30.65;;;22.15;;
1721;SDS011;858;53.190;8.596;2022-11-15T01:58:49;32.15;;;22.35;;
1721;SDS011;858;53.190;8.596;2022-11-15T02:01:17;29.10;;;22.15;;
1721;SDS011;858;53.190;8.596;2022-11-15T02:03:47;30.95;;;22.40;;
1721;SDS011;858;53.190;8.596;2022-11-15T02:06:15;30.77;;;22.47;;
1721;SDS011;858;53.190;8.596;2022-11-15T02:08:42;34.70;;;22.73;;
1721;SDS011;858;53.190;8.596;2022-11-15T02:11:08;31.40;;;22.63;;
1721;SDS011;858;53.190;8.596;2022-11-15T02:13:37;34.00;;;23.25;;
1721;SDS011;858;53.190;8.596;2022-11-15T02:16:05;33.45;;;22.60;;
1721;SDS011;858;53.190;8.596;2022-11-15T02:18:35;36.00;;;24.15;;
1721;SDS011;858;53.190;8.596;2022-11-15T02:21:07;35.28;;;23.70;;
1721;SDS011;858;53.190;8.596;2022-11-15T02:26:30;32.40;;;22.60;;
1721;SDS011;858;53.190;8.596;2022-11-15T02:28:59;34.90;;;24.05;;
1721;SDS011;858;53.190;8.596;2022-11-15T02:31:29;33.00;;;22.85;;
1721;SDS011;858;53.190;8.596;2022-11-15T02:34:00;32.60;;;24.30;;
1721;SDS011;858;53.190;8.596;2022-11-15T02:36:32;35.03;;;23.40;;
1721;SDS011;858;53.190;8.596;2022-11-15T02:39:02;31.08;;;22.38;;
1721;SDS011;858;53.190;8.596;2022-11-15T02:41:30;33.25;;;23.08;;
1721;SDS011;858;53.190;8.596;2022-11-15T02:43:59;32.55;;;22.60;;
1721;SDS011;858;53.190;8.596;2022-11-15T02:46:29;31.42;;;22.77;;
1721;SDS011;858;53.190;8.596;2022-11-15T02:49:16;34.00;;;23.80;;
1721;SDS011;858;53.190;8.596;2022-11-15T02:51:44;35.38;;;24.10;;
1721;SDS011;858;53.190;8.596;2022-11-15T02:54:14;31.40;;;22.30;;
1721;SDS011;858;53.190;8.596;2022-11-15T02:56:42;34.88;;;23.20;;
1721;SDS011;858;53.190;8.596;2022-11-15T02:59:19;31.60;;;22.80;;
1721;SDS011;858;53.190;8.596;2022-11-15T03:01:54;30.55;;;22.65;;
1721;SDS011;858;53.190;8.596;2022-11-15T03:04:23;32.80;;;23.13;;
1721;SDS011;858;53.190;8.596;2022-11-15T03:06:57;33.17;;;23.20;;
1721;SDS011;858;53.190;8.596;2022-11-15T03:09:29;30.38;;;21.63;;
1721;SDS011;858;53.190;8.596;2022-11-15T03:12:02;29.45;;;21.83;;
1721;SDS011;858;53.190;8.596;2022-11-15T03:14:30;29.52;;;21.15;;
1721;SDS011;858;53.190;8.596;2022-11-15T03:17:02;31.30;;;22.05;;
1721;SDS011;858;53.190;8.596;2022-11-15T03:19:29;30.33;;;21.50;;
1721;SDS011;858;53.190;8.596;2022-11-15T03:21:59;31.50;;;22.40;;
1721;SDS011;858;53.190;8.596;2022-11-15T03:24:26;31.00;;;22.37;;
1721;SDS011;858;53.190;8.596;2022-11-15T03:26:54;30.88;;;21.90;;
1721;SDS011;858;53.190;8.596;2022-11-15T03:29:24;30.90;;;21.67;;
1721;SDS011;858;53.190;8.596;2022-11-15T03:31:53;30.57;;;22.03;;
1721;SDS011;858;53.190;8.596;2022-11-15T03:34:25;30.88;;;22.10;;
1721;SDS011;858;53.190;8.596;2022-11-15T03:36:52;31.40;;;21.63;;
1721;SDS011;858;53.190;8.596;2022-11-15T03:39:19;33.78;;;22.77;;
1721;SDS011;858;53.190;8.596;2022-11-15T03:41:47;33.95;;;21.98;;
1721;SDS011;858;53.190;8.596;2022-11-15T03:44:15;41.17;;;23.05;;
1721;SDS011;858;53.190;8.596;2022-11-15T03:46:44;36.17;;;23.70;;
1721;SDS011;858;53.190;8.596;2022-11-15T03:49:14;34.45;;;23.77;;
1721;SDS011;858;53.190;8.596;2022-11-15T03:51:45;34.60;;;23.13;;
1721;SDS011;858;53.190;8.596;2022-11-15T03:54:11;33.85;;;24.52;;
1721;SDS011;858;53.190;8.596;2022-11-15T03:56:38;36.42;;;23.40;;
1721;SDS011;858;53.190;8.596;2022-11-15T03:59:04;36.95;;;25.08;;
1721;SDS011;858;53.190;8.596;2022-11-15T04:01:32;37.08;;;24.48;;
1721;SDS011;858;53.190;8.596;2022-11-15T04:03:58;38.08;;;23.08;;
1721;SDS011;858;53.190;8.596;2022-11-15T04:06:25;34.03;;;23.30;;
1721;SDS011;858;53.190;8.596;2022-11-15T04:08:55;38.73;;;23.27;;
1721;SDS011;858;53.190;8.596;2022-11-15T04:11:22;38.03;;;24.58;;
1721;SDS011;858;53.190;8.596;2022-11-15T04:13:49;34.28;;;23.05;;
1721;SDS011;858;53.190;8.596;2022-11-15T04:16:15;34.58;;;23.48;;
1721;SDS011;858;53.190;8.596;2022-11-15T04:18:42;37.28;;;24.08;;
1721;SDS011;858;53.190;8.596;2022-11-15T04:21:09;37.45;;;23.52;;
1721;SDS011;858;53.190;8.596;2022-11-15T04:23:57;38.90;;;23.40;;
1721;SDS011;858;53.190;8.596;2022-11-15T04:26:40;39.53;;;24.80;;
1721;SDS011;858;53.190;8.596;2022-11-15T04:29:06;36.75;;;23.13;;
1721;SDS011;858;53.190;8.596;2022-11-15T04:31:50;35.70;;;23.55;;
1721;SDS011;858;53.190;8.596;2022-11-15T04:34:17;38.30;;;23.90;;
1721;SDS011;858;53.190;8.596;2022-11-15T04:36:43;43.72;;;24.77;;
1721;SDS011;858;53.190;8.596;2022-11-15T04:39:33;34.23;;;22.93;;
1721;SDS011;858;53.190;8.596;2022-11-15T04:42:00;41.80;;;24.50;;
1721;SDS011;858;53.190;8.596;2022-11-15T04:44:27;37.97;;;23.83;;
1721;SDS011;858;53.190;8.596;2022-11-15T04:46:53;39.92;;;23.77;;
1721;SDS011;858;53.190;8.596;2022-11-15T04:49:20;38.80;;;24.13;;
1721;SDS011;858;53.190;8.596;2022-11-15T04:51:46;41.88;;;24.77;;
1721;SDS011;858;53.190;8.596;2022-11-15T04:54:13;34.10;;;24.23;;
1721;SDS011;858;53.190;8.596;2022-11-15T04:56:41;38.28;;;24.15;;
1721;SDS011;858;53.190;8.596;2022-11-15T04:59:08;38.97;;;24.50;;
1721;SDS011;858;53.190;8.596;2022-11-15T05:01:34;35.15;;;22.48;;
1721;SDS011;858;53.190;8.596;2022-11-15T05:04:01;38.05;;;22.90;;
1721;SDS011;858;53.190;8.596;2022-11-15T05:06:45;31.30;;;21.60;;
1721;SDS011;858;53.190;8.596;2022-11-15T05:09:11;35.28;;;22.17;;
1721;SDS011;858;53.190;8.596;2022-11-15T05:11:40;31.20;;;22.05;;
1721;SDS011;858;53.190;8.596;2022-11-15T05:14:06;33.33;;;22.23;;
1721;SDS011;858;53.190;8.596;2022-11-15T05:16:34;32.25;;;21.38;;
1721;SDS011;858;53.190;8.596;2022-11-15T05:19:03;28.23;;;19.23;;
1721;SDS011;858;53.190;8.596;2022-11-15T05:21:29;35.42;;;21.25;;
1721;SDS011;858;53.190;8.596;2022-11-15T05:23:56;31.25;;;19.15;;
1721;SDS011;858;53.190;8.596;2022-11-15T05:26:23;30.33;;;20.37;;
1721;SDS011;858;53.190;8.596;2022-11-15T05:28:53;28.73;;;18.98;;
1721;SDS011;858;53.190;8.596;2022-11-15T05:31:20;23.30;;;18.08;;
1721;SDS011;858;53.190;8.596;2022-11-15T05:33:46;28.23;;;18.97;;
1721;SDS011;858;53.190;8.596;2022-11-15T05:36:15;23.47;;;17.73;;
1721;SDS011;858;53.190;8.596;2022-11-15T05:38:44;24.60;;;18.08;;
1721;SDS011;858;53.190;8.596;2022-11-15T05:41:10;25.95;;;17.70;;
1721;SDS011;858;53.190;8.596;2022-11-15T05:43:38;22.65;;;16.80;;
1721;SDS011;858;53.190;8.596;2022-11-15T05:46:07;24.40;;;17.80;;
1721;SDS011;858;53.190;8.596;2022-11-15T05:48:34;21.97;;;16.13;;
1721;SDS011;858;53.190;8.596;2022-11-15T05:51:02;26.10;;;16.45;;
1721;SDS011;858;53.190;8.596;2022-11-15T05:53:30;28.70;;;17.10;;
1721;SDS011;858;53.190;8.596;2022-11-15T05:55:56;20.00;;;16.10;;
1721;SDS011;858;53.190;8.596;2022-11-15T05:58:23;26.97;;;17.33;;
1721;SDS011;858;53.190;8.596;2022-11-15T06:00:49;24.60;;;16.80;;
1721;SDS011;858;53.190;8.596;2022-11-15T06:03:21;22.73;;;15.23;;
1721;SDS011;858;53.190;8.596;2022-11-15T06:05:48;23.63;;;16.73;;
1721;SDS011;858;53.190;8.596;2022-11-15T06:08:15;23.17;;;16.58;;
1721;SDS011;858;53.190;8.596;2022-11-15T06:10:41;21.17;;;15.45;;
1721;SDS011;858;53.190;8.596;2022-11-15T06:13:08;20.40;;;16.47;;
1721;SDS011;858;53.190;8.596;2022-11-15T06:15:34;25.35;;;18.10;;
1721;SDS011;858;53.190;8.596;2022-11-15T06:18:00;21.60;;;15.90;;
1721;SDS011;858;53.190;8.596;2022-11-15T06:20:29;21.80;;;15.70;;
1721;SDS011;858;53.190;8.596;2022-11-15T06:22:58;21.58;;;16.90;;
1721;SDS011;858;53.190;8.596;2022-11-15T06:25:25;22.97;;;16.33;;
1721;SDS011;858;53.190;8.596;2022-11-15T06:27:52;21.75;;;16.05;;
1721;SDS011;858;53.190;8.596;2022-11-15T06:30:19;22.58;;;16.52;;
1721;SDS011;858;53.190;8.596;2022-11-15T06:32:45;23.15;;;17.25;;
1721;SDS011;858;53.190;8.596;2022-11-15T06:35:13;23.13;;;15.63;;
1721;SDS011;858;53.190;8.596;2022-11-15T06:37:41;20.92;;;16.20;;
1721;SDS011;858;53.190;8.596;2022-11-15T06:40:08;25.80;;;16.75;;
1721;SDS011;858;53.190;8.596;2022-11-15T06:42:37;22.65;;;18.65;;
1721;SDS011;858;53.190;8.596;2022-11-15T06:45:04;22.45;;;17.13;;
1721;SDS011;858;53.190;8.596;2022-11-15T06:47:30;22.77;;;17.02;;
1721;SDS011;858;53.190;8.596;2022-11-15T06:49:57;21.05;;;16.55;;
1721;SDS011;858;53.190;8.596;2022-11-15T06:52:24;21.08;;;16.30;;
1721;SDS011;858;53.190;8.596;2022-11-15T06:54:52;24.77;;;16.23;;
1721;SDS011;858;53.190;8.596;2022-11-15T06:57:18;20.67;;;16.40;;
1721;SDS011;858;53.190;8.596;2022-11-15T06:59:45;23.95;;;17.30;;
1721;SDS011;858;53.190;8.596;2022-11-15T07:02:11;23.80;;;16.20;;
1721;SDS011;858;53.190;8.596;2022-11-15T07:04:39;21.80;;;16.48;;
1721;SDS011;858;53.190;8.596;2022-11-15T07:07:05;24.55;;;16.60;;
1721;SDS011;858;53.190;8.596;2022-11-15T07:09:32;23.60;;;16.52;;
1721;SDS011;858;53.190;8.596;2022-11-15T07:12:01;23.20;;;17.10;;
1721;SDS011;858;53.190;8.596;2022-11-15T07:14:29;21.25;;;16.77;;
1721;SDS011;858;53.190;8.596;2022-11-15T07:16:56;23.52;;;16.27;;
1721;SDS011;858;53.190;8.596;2022-11-15T07:19:22;24.27;;;16.75;;
1721;SDS011;858;53.190;8.596;2022-11-15T07:21:49;25.33;;;17.38;;
1721;SDS011;858;53.190;8.596;2022-11-15T07:24:15;22.00;;;16.35;;
1721;SDS011;858;53.190;8.596;2022-11-15T07:26:41;24.48;;;17.48;;
1721;SDS011;858;53.190;8.596;2022-11-15T07:29:09;21.17;;;16.48;;
1721;SDS011;858;53.190;8.596;2022-11-15T07:31:36;19.70;;;15.80;;
1721;SDS011;858;53.190;8.596;2022-11-15T07:34:03;25.77;;;17.35;;
1721;SDS011;858;53.190;8.596;2022-11-15T07:36:29;24.45;;;17.85;;
1721;SDS011;858;53.190;8.596;2022-11-15T07:38:55;22.35;;;17.25;;
1721;SDS011;858;53.190;8.596;2022-11-15T07:41:22;21.33;;;16.95;;
1721;SDS011;858;53.190;8.596;2022-11-15T07:43:50;20.95;;;17.17;;
1721;SDS011;858;53.190;8.596;2022-11-15T07:46:18;23.92;;;16.80;;
1721;SDS011;858;53.190;8.596;2022-11-15T07:48:45;21.50;;;16.70;;
1721;SDS011;858;53.190;8.596;2022-11-15T07:51:11;20.85;;;17.58;;
1721;SDS011;858;53.190;8.596;2022-11-15T07:53:39;21.05;;;16.33;;
1721;SDS011;858;53.190;8.596;2022-11-15T07:56:05;21.30;;;17.80;;
1721;SDS011;858;53.190;8.596;2022-11-15T07:58:33;19.30;;;16.10;;
1721;SDS011;858;53.190;8.596;2022-11-15T08:01:02;24.50;;;17.52;;
1721;SDS011;858;53.190;8.596;2022-11-15T08:03:31;22.88;;;16.77;;
1721;SDS011;858;53.190;8.596;2022-11-15T08:05:58;22.52;;;17.00;;
1721;SDS011;858;53.190;8.596;2022-11-15T08:08:25;20.90;;;17.50;;
1721;SDS011;858;53.190;8.596;2022-11-15T08:10:52;20.48;;;16.13;;
1721;SDS011;858;53.190;8.596;2022-11-15T08:13:18;22.33;;;16.95;;
1721;SDS011;858;53.190;8.596;2022-11-15T08:15:46;19.95;;;16.20;;
1721;SDS011;858;53.190;8.596;2022-11-15T08:18:13;19.85;;;17.20;;
1721;SDS011;858;53.190;8.596;2022-11-15T08:20:42;23.42;;;16.35;;
1721;SDS011;858;53.190;8.596;2022-11-15T08:23:09;23.50;;;17.50;;
1721;SDS011;858;53.190;8.596;2022-11-15T08:25:36;22.75;;;17.05;;
1721;SDS011;858;53.190;8.596;2022-11-15T08:28:04;21.52;;;16.58;;
1721;SDS011;858;53.190;8.596;2022-11-15T08:30:34;21.65;;;16.63;;
1721;SDS011;858;53.190;8.596;2022-11-15T08:33:01;20.50;;;15.90;;
1721;SDS011;858;53.190;8.596;2022-11-15T08:35:27;20.58;;;16.63;;
1721;SDS011;858;53.190;8.596;2022-11-15T08:37:58;17.35;;;15.23;;
1721;SDS011;858;53.190;8.596;2022-11-15T08:40:25;25.85;;;17.08;;
1721;SDS011;858;53.190;8.596;2022-11-15T08:42:52;20.05;;;16.10;;
1721;SDS011;858;53.190;8.596;2022-11-15T08:45:19;20.30;;;16.70;;
1721;SDS011;858;53.190;8.596;2022-11-15T08:47:45;21.95;;;15.65;;
1721;SDS011;858;53.190;8.596;2022-11-15T08:50:14;21.42;;;17.00;;
1721;SDS011;858;53.190;8.596;2022-11-15T08:52:40;21.27;;;16.38;;
1721;SDS011;858;53.190;8.596;2022-11-15T08:55:09;20.17;;;15.77;;
1721;SDS011;858;53.190;8.596;2022-11-15T08:57:35;22.45;;;15.82;;
1721;SDS011;858;53.190;8.596;2022-11-15T09:00:02;18.73;;;15.77;;
1721;SDS011;858;53.190;8.596;2022-11-15T09:02:31;19.80;;;16.30;;
1721;SDS011;858;53.190;8.596;2022-11-15T09:04:57;19.48;;;16.27;;
1721;SDS011;858;53.190;8.596;2022-11-15T09:07:24;20.13;;;15.60;;
1721;SDS011;858;53.190;8.596;2022-11-15T09:09:50;22.13;;;16.67;;
1721;SDS011;858;53.190;8.596;2022-11-15T09:12:20;18.58;;;15.93;;
1721;SDS011;858;53.190;8.596;2022-11-15T09:14:46;21.95;;;16.45;;
1721;SDS011;858;53.190;8.596;2022-11-15T09:17:12;18.38;;;15.40;;
1721;SDS011;858;53.190;8.596;2022-11-15T09:19:39;21.17;;;15.38;;
1721;SDS011;858;53.190;8.596;2022-11-15T09:22:06;19.15;;;15.25;;
1721;SDS011;858;53.190;8.596;2022-11-15T09:24:32;19.65;;;15.52;;
1721;SDS011;858;53.190;8.596;2022-11-15T09:26:59;19.45;;;15.90;;
1721;SDS011;858;53.190;8.596;2022-11-15T09:29:27;17.75;;;15.80;;
1721;SDS011;858;53.190;8.596;2022-11-15T09:31:54;19.90;;;16.40;;
1721;SDS011;858;53.190;8.596;2022-11-15T09:34:20;21.52;;;17.40;;
1721;SDS011;858;53.190;8.596;2022-11-15T09:36:47;19.38;;;15.88;;
1721;SDS011;858;53.190;8.596;2022-11-15T09:39:13;18.60;;;16.33;;
1721;SDS011;858;53.190;8.596;2022-11-15T09:41:44;21.63;;;15.73;;
1721;SDS011;858;53.190;8.596;2022-11-15T09:44:33;20.40;;;15.30;;
1721;SDS011;858;53.190;8.596;2022-11-15T09:47:03;19.15;;;15.45;;
1721;SDS011;858;53.190;8.596;2022-11-15T09:49:32;19.58;;;15.20;;
1721;SDS011;858;53.190;8.596;2022-11-15T09:51:58;20.20;;;14.73;;
1721;SDS011;858;53.190;8.596;2022-11-15T09:54:26;19.42;;;14.27;;
1721;SDS011;858;53.190;8.596;2022-11-15T09:56:53;16.85;;;14.50;;
1721;SDS011;858;53.190;8.596;2022-11-15T09:59:27;20.33;;;15.60;;
1721;SDS011;858;53.190;8.596;2022-11-15T10:02:03;17.15;;;14.70;;
1721;SDS011;858;53.190;8.596;2022-11-15T10:04:32;15.05;;;12.95;;
1721;SDS011;858;53.190;8.596;2022-11-15T10:07:01;17.50;;;13.02;;
1721;SDS011;858;53.190;8.596;2022-11-15T10:09:29;22.60;;;14.15;;
1721;SDS011;858;53.190;8.596;2022-11-15T10:11:58;18.40;;;13.57;;
1721;SDS011;858;53.190;8.596;2022-11-15T10:14:25;18.38;;;13.75;;
1721;SDS011;858;53.190;8.596;2022-11-15T10:17:00;16.08;;;13.40;;
1721;SDS011;858;53.190;8.596;2022-11-15T10:19:33;14.93;;;12.82;;
1721;SDS011;858;53.190;8.596;2022-11-15T10:22:04;14.93;;;12.32;;
1721;SDS011;858;53.190;8.596;2022-11-15T10:24:35;13.20;;;11.80;;
1721;SDS011;858;53.190;8.596;2022-11-15T10:27:06;16.10;;;12.73;;
1721;SDS011;858;53.190;8.596;2022-11-15T10:29:33;15.73;;;12.23;;
1721;SDS011;858;53.190;8.596;2022-11-15T10:32:00;15.48;;;12.35;;
1721;SDS011;858;53.190;8.596;2022-11-15T10:34:27;13.75;;;12.15;;
1721;SDS011;858;53.190;8.596;2022-11-15T10:36:55;15.68;;;12.02;;
1721;SDS011;858;53.190;8.596;2022-11-15T10:39:22;16.38;;;11.88;;
1721;SDS011;858;53.190;8.596;2022-11-15T10:41:50;17.23;;;12.60;;
1721;SDS011;858;53.190;8.596;2022-11-15T10:44:21;16.70;;;12.20;;
1721;SDS011;858;53.190;8.596;2022-11-15T10:47:03;15.13;;;12.13;;
1721;SDS011;858;53.190;8.596;2022-11-15T10:49:30;15.93;;;12.27;;
1721;SDS011;858;53.190;8.596;2022-11-15T10:52:00;18.23;;;12.75;;
1721;SDS011;858;53.190;8.596;2022-11-15T10:54:28;14.75;;;11.85;;
1721;SDS011;858;53.190;8.596;2022-11-15T10:56:57;14.65;;;11.23;;
1721;SDS011;858;53.190;8.596;2022-11-15T10:59:26;12.93;;;11.50;;
1721;SDS011;858;53.190;8.596;2022-11-15T11:01:53;13.40;;;10.93;;
1721;SDS011;858;53.190;8.596;2022-11-15T11:04:20;15.60;;;11.25;;
1721;SDS011;858;53.190;8.596;2022-11-15T11:06:47;14.80;;;11.65;;
1721;SDS011;858;53.190;8.596;2022-11-15T11:09:22;13.02;;;11.15;;
1721;SDS011;858;53.190;8.596;2022-11-15T11:11:50;13.35;;;11.35;;
1721;SDS011;858;53.190;8.596;2022-11-15T11:14:19;12.18;;;10.68;;
1721;SDS011;858;53.190;8.596;2022-11-15T11:16:47;13.68;;;10.77;;
1721;SDS011;858;53.190;8.596;2022-11-15T11:19:18;14.50;;;11.30;;
1721;SDS011;858;53.190;8.596;2022-11-15T11:21:49;13.57;;;10.90;;
1721;SDS011;858;53.190;8.596;2022-11-15T11:24:18;12.63;;;10.05;;
1721;SDS011;858;53.190;8.596;2022-11-15T11:26:57;12.18;;;10.27;;
1721;SDS011;858;53.190;8.596;2022-11-15T11:29:29;12.25;;;10.10;;
1721;SDS011;858;53.190;8.596;2022-11-15T11:32:00;13.20;;;10.30;;
1721;SDS011;858;53.190;8.596;2022-11-15T11:34:40;11.65;;;9.75;;
1721;SDS011;858;53.190;8.596;2022-11-15T11:37:20;11.35;;;8.82;;
1721;SDS011;858;53.190;8.596;2022-11-15T11:39:53;10.43;;;9.32;;
1721;SDS011;858;53.190;8.596;2022-11-15T11:42:30;12.63;;;9.23;;
1721;SDS011;858;53.190;8.596;2022-11-15T11:45:00;10.82;;;8.50;;
1721;SDS011;858;53.190;8.596;2022-11-15T11:47:30;10.43;;;9.00;;
1721;SDS011;858;53.190;8.596;2022-11-15T11:49:59;10.85;;;8.32;;
1721;SDS011;858;53.190;8.596;2022-11-15T11:52:28;11.20;;;8.13;;
1721;SDS011;858;53.190;8.596;2022-11-15T11:54:59;9.55;;;7.20;;
1721;SDS011;858;53.190;8.596;2022-11-15T11:57:32;9.25;;;7.80;;
1721;SDS011;858;53.190;8.596;2022-11-15T12:00:01;11.80;;;7.88;;
1721;SDS011;858;53.190;8.596;2022-11-15T12:02:33;7.57;;;6.85;;
1721;SDS011;858;53.190;8.596;2022-11-15T12:05:03;8.85;;;7.95;;
1721;SDS011;858;53.190;8.596;2022-11-15T12:07:31;8.40;;;7.27;;
1721;SDS011;858;53.190;8.596;2022-11-15T12:10:01;8.13;;;6.80;;
1721;SDS011;858;53.190;8.596;2022-11-15T12:12:34;8.57;;;7.22;;
1721;SDS011;858;53.190;8.596;2022-11-15T12:15:03;8.40;;;6.80;;
1721;SDS011;858;53.190;8.596;2022-11-15T12:17:30;9.30;;;6.90;;
1721;SDS011;858;53.190;8.596;2022-11-15T12:19:58;8.32;;;6.90;;
1721;SDS011;858;53.190;8.596;2022-11-15T12:22:28;8.32;;;7.20;;
1721;SDS011;858;53.190;8.596;2022-11-15T12:25:00;8.20;;;7.00;;
1721;SDS011;858;53.190;8.596;2022-11-15T12:27:31;7.22;;;6.45;;
1721;SDS011;858;53.190;8.596;2022-11-15T12:30:00;7.28;;;6.55;;
1721;SDS011;858;53.190;8.596;2022-11-15T12:32:29;8.63;;;6.93;;
1721;SDS011;858;53.190;8.596;2022-11-15T12:34:57;8.70;;;6.50;;
1721;SDS011;858;53.190;8.596;2022-11-15T12:45:47;6.60;;;5.90;;
1721;SDS011;858;53.190;8.596;2022-11-15T12:50:59;5.63;;;5.13;;
1721;SDS011;858;53.190;8.596;2022-11-15T12:53:26;7.00;;;5.20;;
1721;SDS011;858;53.190;8.596;2022-11-15T12:58:41;6.28;;;5.00;;
1721;SDS011;858;53.190;8.596;2022-11-15T13:01:10;7.55;;;5.00;;
1721;SDS011;858;53.190;8.596;2022-11-15T13:06:37;4.70;;;4.30;;
1721;SDS011;858;53.190;8.596;2022-11-15T13:11:48;4.97;;;4.47;;
1721;SDS011;858;53.190;8.596;2022-11-15T13:14:34;5.30;;;4.30;;
1721;SDS011;858;53.190;8.596;2022-11-15T13:17:11;5.30;;;4.50;;
1721;SDS011;858;53.190;8.596;2022-11-15T13:19:38;7.20;;;4.40;;
1721;SDS011;858;53.190;8.596;2022-11-15T13:22:08;5.22;;;4.50;;
1721;SDS011;858;53.190;8.596;2022-11-15T13:25:14;5.70;;;4.18;;
1721;SDS011;858;53.190;8.596;2022-11-15T13:27:44;4.20;;;3.80;;
1721;SDS011;858;53.190;8.596;2022-11-15T13:30:12;5.25;;;3.90;;
1721;SDS011;858;53.190;8.596;2022-11-15T13:32:42;4.35;;;3.50;;
1721;SDS011;858;53.190;8.596;2022-11-15T13:35:08;4.00;;;3.60;;
1721;SDS011;858;53.190;8.596;2022-11-15T13:37:35;4.43;;;3.70;;
1721;SDS011;858;53.190;8.596;2022-11-15T13:40:10;3.45;;;2.97;;
1721;SDS011;858;53.190;8.596;2022-11-15T13:42:41;3.60;;;3.30;;
1721;SDS011;858;53.190;8.596;2022-11-15T13:45:11;4.55;;;3.20;;
1721;SDS011;858;53.190;8.596;2022-11-15T13:47:38;4.13;;;3.33;;
1721;SDS011;858;53.190;8.596;2022-11-15T13:50:10;5.40;;;3.30;;
1721;SDS011;858;53.190;8.596;2022-11-15T13:52:36;3.80;;;2.90;;
1721;SDS011;858;53.190;8.596;2022-11-15T13:55:05;4.77;;;3.10;;
1721;SDS011;858;53.190;8.596;2022-11-15T13:57:37;4.95;;;3.55;;
1721;SDS011;858;53.190;8.596;2022-11-15T14:00:05;4.05;;;2.90;;
1721;SDS011;858;53.190;8.596;2022-11-15T14:02:33;3.53;;;2.85;;
1721;SDS011;858;53.190;8.596;2022-11-15T14:05:04;3.42;;;2.75;;
1721;SDS011;858;53.190;8.596;2022-11-15T14:07:33;3.00;;;2.60;;
1721;SDS011;858;53.190;8.596;2022-11-15T14:10:16;5.30;;;2.70;;
1721;SDS011;858;53.190;8.596;2022-11-15T14:12:49;3.60;;;2.80;;
1721;SDS011;858;53.190;8.596;2022-11-15T14:15:25;2.50;;;2.20;;
1721;SDS011;858;53.190;8.596;2022-11-15T14:17:52;3.28;;;2.13;;
1721;SDS011;858;53.190;8.596;2022-11-15T14:20:20;2.25;;;1.80;;
1721;SDS011;858;53.190;8.596;2022-11-15T14:22:53;3.70;;;2.07;;
1721;SDS011;858;53.190;8.596;2022-11-15T14:25:20;2.63;;;1.85;;
1721;SDS011;858;53.190;8.596;2022-11-15T14:28:08;4.80;;;2.50;;
1721;SDS011;858;53.190;8.596;2022-11-15T14:30:34;4.53;;;2.42;;
1721;SDS011;858;53.190;8.596;2022-11-15T14:33:11;3.33;;;2.53;;
1721;SDS011;858;53.190;8.596;2022-11-15T14:35:41;3.13;;;2.30;;
1721;SDS011;858;53.190;8.596;2022-11-15T14:38:10;2.83;;;2.08;;
1721;SDS011;858;53.190;8.596;2022-11-15T14:40:36;4.30;;;2.90;;
1721;SDS011;858;53.190;8.596;2022-11-15T14:43:02;3.35;;;2.20;;
1721;SDS011;858;53.190;8.596;2022-11-15T14:45:29;2.90;;;2.70;;
1721;SDS011;858;53.190;8.596;2022-11-15T14:47:56;3.22;;;2.78;;
1721;SDS011;858;53.190;8.596;2022-11-15T14:50:24;5.47;;;3.00;;
1721;SDS011;858;53.190;8.596;2022-11-15T14:52:52;6.57;;;3.10;;
1721;SDS011;858;53.190;8.596;2022-11-15T14:55:21;5.28;;;3.55;;
1721;SDS011;858;53.190;8.596;2022-11-15T14:57:48;3.70;;;3.00;;
1721;SDS011;858;53.190;8.596;2022-11-15T15:00:15;4.15;;;3.70;;
1721;SDS011;858;53.190;8.596;2022-11-15T15:02:42;7.43;;;3.83;;
1721;SDS011;858;53.190;8.596;2022-11-15T15:05:12;7.45;;;3.97;;
1721;SDS011;858;53.190;8.596;2022-11-15T15:07:39;6.00;;;4.60;;
1721;SDS011;858;53.190;8.596;2022-11-15T15:10:06;5.15;;;4.50;;
1721;SDS011;858;53.190;8.596;2022-11-15T15:12:34;6.25;;;4.68;;
1721;SDS011;858;53.190;8.596;2022-11-15T15:15:02;4.90;;;3.80;;
1721;SDS011;858;53.190;8.596;2022-11-15T15:17:29;3.63;;;3.33;;
1721;SDS011;858;53.190;8.596;2022-11-15T15:19:56;4.87;;;3.40;;
1721;SDS011;858;53.190;8.596;2022-11-15T15:22:22;3.83;;;2.75;;
1721;SDS011;858;53.190;8.596;2022-11-15T15:24:53;5.38;;;3.50;;
1721;SDS011;858;53.190;8.596;2022-11-15T15:27:20;3.45;;;3.15;;
1721;SDS011;858;53.190;8.596;2022-11-15T15:29:48;3.85;;;2.80;;
1721;SDS011;858;53.190;8.596;2022-11-15T15:32:14;3.10;;;2.77;;
1721;SDS011;858;53.190;8.596;2022-11-15T15:34:41;3.38;;;2.97;;
1721;SDS011;858;53.190;8.596;2022-11-15T15:37:08;5.00;;;3.17;;
1721;SDS011;858;53.190;8.596;2022-11-15T15:39:35;5.43;;;3.20;;